Time;durP1;ratioP1;P1;durP2;ratioP2;P2;SDS_P1;SDS_P2;PMS_P1;PMS_P2;Temp;Humidity;BMP_temperature;BMP_pressure;BME280_temperature;BME280_humidity;BME280_pressure;Samples;Min_cycle;Max_cycle;Signal;HPM_P1;HPM_P2
2020/12/20 00:02:14;;;;;;;36.80;19.75;;;;;;;5.21;74.81;101893.92;1738122;80;21145;-45
2020/12/20 00:04:41;;;;;;;36.98;17.95;;;;;;;5.26;74.73;101889.44;1739223;80;21181;-47
2020/12/20 00:07:10;;;;;;;38.73;21.80;;;;;;;5.28;74.61;101885.01;1732346;80;21632;-45
2020/12/20 00:09:38;;;;;;;41.45;20.70;;;;;;;5.31;74.53;101897.31;1733235;81;21198;-45
2020/12/20 00:12:05;;;;;;;35.38;20.85;;;;;;;5.33;74.50;101899.50;1736116;80;21151;-45
2020/12/20 00:14:36;;;;;;;37.85;19.98;;;;;;;5.34;74.46;101896.84;1733657;80;21122;-44
2020/12/20 00:17:10;;;;;;;37.95;20.43;;;;;;;5.37;74.40;101899.44;1735383;80;21113;-48
2020/12/20 00:19:39;;;;;;;39.67;19.15;;;;;;;5.39;74.34;101896.75;1743942;80;21609;-45
2020/12/20 00:22:10;;;;;;;31.48;18.07;;;;;;;5.41;74.26;101901.57;1741352;80;21134;-44
2020/12/20 00:24:38;;;;;;;36.58;18.85;;;;;;;5.42;74.17;101904.20;1735513;81;21160;-49
2020/12/20 00:27:06;;;;;;;42.62;22.17;;;;;;;5.45;74.12;101901.97;1732082;80;21182;-40
2020/12/20 00:29:33;;;;;;;35.45;20.00;;;;;;;5.45;74.10;101899.32;1735576;81;21113;-45
2020/12/20 00:32:02;;;;;;;37.23;21.20;;;;;;;5.47;74.02;101900.17;1743369;81;21560;-44
2020/12/20 00:34:29;;;;;;;35.58;20.23;;;;;;;5.48;73.96;101893.98;1741782;81;21145;-49
2020/12/20 00:36:57;;;;;;;38.58;19.57;;;;;;;5.49;73.92;101898.81;1736576;80;21142;-47
2020/12/20 00:39:24;;;;;;;35.00;20.50;;;;;;;5.52;73.88;101900.98;1739613;80;21114;-46
2020/12/20 00:41:55;;;;;;;36.20;20.20;;;;;;;5.52;73.81;101900.98;1738094;80;21652;-45
2020/12/20 00:44:24;;;;;;;33.15;19.98;;;;;;;5.53;73.77;101897.87;1739462;81;21150;-49
2020/12/20 00:46:52;;;;;;;33.85;19.55;;;;;;;5.52;73.74;101896.11;1744249;80;21165;-48
2020/12/20 00:49:27;;;;;;;36.55;19.65;;;;;;;5.51;73.72;101898.34;1740814;81;21146;-48
2020/12/20 00:51:58;;;;;;;39.65;23.02;;;;;;;5.52;73.69;101903.63;1735131;80;21173;-45
2020/12/20 00:54:26;;;;;;;42.50;23.45;;;;;;;5.46;73.66;101898.87;1736090;81;21142;-48
2020/12/20 00:56:54;;;;;;;43.63;21.90;;;;;;;5.40;73.77;101895.87;1704101;82;21109;-48
2020/12/20 00:59:22;;;;;;;40.33;21.00;;;;;;;5.30;73.86;101896.90;1734461;80;21154;-45
2020/12/20 01:01:51;;;;;;;34.18;19.92;;;;;;;5.22;74.10;101894.36;1700698;82;21456;-47
2020/12/20 01:04:19;;;;;;;37.30;19.20;;;;;;;5.23;74.19;101888.62;1736390;80;21122;-51
2020/12/20 01:06:47;;;;;;;35.20;18.95;;;;;;;5.26;74.21;101891.22;1742252;80;21736;-52
2020/12/20 01:09:23;;;;;;;44.18;27.62;;;;;;;5.33;74.22;101892.88;1788773;78;28145;-52
2020/12/20 01:11:51;;;;;;;36.35;20.92;;;;;;;5.37;74.19;101893.27;1782139;79;21177;-52
2020/12/20 01:14:20;;;;;;;38.13;21.80;;;;;;;5.52;73.93;101898.76;1783511;79;21141;-52
2020/12/20 01:16:49;;;;;;;28.42;17.87;;;;;;;5.52;73.85;101898.34;1783268;79;21111;-53
2020/12/20 01:19:17;;;;;;;37.03;20.63;;;;;;;5.52;73.76;101900.98;1777887;79;21137;-46
2020/12/20 01:21:44;;;;;;;37.28;20.45;;;;;;;5.49;73.74;101896.16;1789642;79;21152;-49
2020/12/20 01:24:12;;;;;;;32.90;18.95;;;;;;;5.48;73.85;101895.75;1770834;79;21145;-51
2020/12/20 01:26:40;;;;;;;35.30;19.82;;;;;;;5.50;73.78;101901.91;1779135;79;21149;-51
2020/12/20 01:29:07;;;;;;;30.80;18.60;;;;;;;5.52;73.71;101903.63;1752901;79;21446;-51
2020/12/20 01:31:35;;;;;;;30.68;16.20;;;;;;;5.48;73.69;101902.38;1760408;79;21133;-53
2020/12/20 01:34:04;;;;;;;31.27;18.73;;;;;;;5.47;73.68;101900.60;1717417;82;21627;-49
2020/12/20 01:36:32;;;;;;;34.30;18.95;;;;;;;5.45;73.75;101903.75;1718641;81;21565;-48
2020/12/20 01:39:03;;;;;;;35.38;18.92;;;;;;;5.45;73.70;101904.61;1710382;82;21441;-46
2020/12/20 01:41:31;;;;;;;33.45;19.65;;;;;;;5.47;73.73;101904.15;1731602;81;21122;-46
2020/12/20 01:43:58;;;;;;;32.78;18.30;;;;;;;5.48;73.72;101903.69;1730248;81;21176;-47
2020/12/20 01:46:54;;;;;;;31.93;17.30;;;;;;;5.53;73.62;101898.75;1800476;78;22914;-45
2020/12/20 01:49:22;;;;;;;29.95;17.87;;;;;;;5.43;73.58;101904.63;1760192;79;21144;-48
2020/12/20 01:51:50;;;;;;;31.93;17.05;;;;;;;5.34;73.71;101900.81;1772392;79;21148;-46
2020/12/20 01:54:18;;;;;;;33.02;19.17;;;;;;;5.27;73.91;101893.85;1739774;80;21197;-47
2020/12/20 01:56:57;;;;;;;33.08;18.07;;;;;;;5.26;74.00;101902.66;1778565;80;21189;-45
2020/12/20 01:59:26;;;;;;;36.53;19.60;;;;;;;5.23;74.06;101893.45;1760734;79;21139;-46
2020/12/20 02:01:58;;;;;;;31.80;18.40;;;;;;;5.18;74.19;101897.94;1774277;80;21655;-46
2020/12/20 02:04:53;;;;;;;30.27;17.10;;;;;;;5.18;74.33;101895.29;1793270;78;22990;-46
2020/12/20 02:07:22;;;;;;;28.73;15.90;;;;;;;5.09;74.42;101896.73;1776210;79;21160;-46
2020/12/20 02:09:52;;;;;;;29.92;16.77;;;;;;;5.07;74.55;101899.87;1774199;79;21226;-48
2020/12/20 02:12:26;;;;;;;29.07;16.10;;;;;;;5.10;74.59;101902.46;1738592;80;21184;-47
2020/12/20 02:14:56;;;;;;;34.45;18.12;;;;;;;5.09;74.64;101901.59;1772261;79;21142;-47
2020/12/20 02:17:23;;;;;;;31.10;17.67;;;;;;;5.10;74.68;101903.33;1766729;79;21161;-45
2020/12/20 02:19:51;;;;;;;31.45;17.32;;;;;;;5.08;74.69;101907.76;1749958;79;21137;-46
2020/12/20 02:22:20;;;;;;;29.70;16.20;;;;;;;5.02;74.78;101905.20;1776457;79;21223;-47
2020/12/20 02:24:50;;;;;;;29.32;16.75;;;;;;;4.95;74.92;101913.66;1724369;81;21141;-45
2020/12/20 02:27:52;;;;;;;27.65;14.18;;;;;;;4.96;75.11;101901.30;1791619;78;22935;-48
2020/12/20 02:30:21;;;;;;;28.87;16.50;;;;;;;4.96;75.15;101905.27;1765542;80;21287;-52
2020/12/20 02:32:49;;;;;;;31.25;17.57;;;;;;;4.98;75.13;101901.70;1746223;80;21145;-51
2020/12/20 02:35:17;;;;;;;32.58;18.85;;;;;;;4.96;75.17;101902.62;1776390;79;21169;-49
2020/12/20 02:37:45;;;;;;;27.37;16.27;;;;;;;4.97;75.24;101897.78;1779716;79;21173;-47
2020/12/20 02:40:13;;;;;;;27.82;15.90;;;;;;;4.97;75.17;101897.78;1771724;80;21170;-48
2020/12/20 02:42:43;;;;;;;25.65;15.15;;;;;;;4.96;75.15;101906.17;1766639;79;21156;-47
2020/12/20 02:45:10;;;;;;;28.30;15.58;;;;;;;4.93;75.21;101906.19;1758503;80;21167;-52
2020/12/20 02:47:38;;;;;;;27.27;15.75;;;;;;;4.93;75.25;101910.15;1770963;79;21160;-46
2020/12/20 02:50:06;;;;;;;23.50;13.60;;;;;;;4.96;75.31;101918.48;1763688;79;21153;-48
2020/12/20 02:52:38;;;;;;;23.73;14.47;;;;;;;5.05;75.37;101916.20;1774426;79;21169;-48
2020/12/20 02:55:06;;;;;;;23.90;14.50;;;;;;;5.12;75.23;101912.13;1773215;79;21573;-47
2020/12/20 02:57:35;;;;;;;24.57;14.53;;;;;;;5.21;75.06;101916.40;1767020;79;21542;-50
2020/12/20 03:00:21;;;;;;;22.65;13.43;;;;;;;5.28;74.91;101918.52;1757568;79;21132;-46
2020/12/20 03:02:49;;;;;;;21.52;12.50;;;;;;;5.31;74.67;101920.66;1751190;80;21149;-52
2020/12/20 03:05:20;;;;;;;21.07;12.93;;;;;;;5.28;74.57;101912.78;1778981;80;21129;-52
2020/12/20 03:07:50;;;;;;;23.35;12.98;;;;;;;5.31;74.51;101918.48;1771205;79;21153;-52
2020/12/20 03:10:18;;;;;;;24.15;14.20;;;;;;;5.31;74.33;101914.05;1743889;80;21189;-53
2020/12/20 03:12:46;;;;;;;25.45;15.50;;;;;;;5.29;74.28;101917.20;1748445;79;21157;-53
2020/12/20 03:15:15;;;;;;;26.37;15.78;;;;;;;5.25;74.19;101922.55;1750732;80;21166;-52
2020/12/20 03:17:43;;;;;;;20.35;14.50;;;;;;;5.15;74.26;101916.05;1782147;79;21145;-48
2020/12/20 03:20:11;;;;;;;21.73;13.90;;;;;;;5.11;74.39;101919.61;1738438;80;21182;-53
2020/12/20 03:22:38;;;;;;;23.90;13.30;;;;;;;5.13;74.51;101916.96;1760677;79;21156;-51
2020/12/20 03:25:17;;;;;;;23.50;14.33;;;;;;;5.26;74.50;101920.31;1763006;79;23087;-49
2020/12/20 03:27:52;;;;;;;22.80;12.88;;;;;;;5.29;74.36;101925.55;1693633;83;21215;-50
2020/12/20 03:30:50;;;;;;;24.65;15.03;;;;;;;5.37;74.27;101923.70;1802074;78;23080;-46
2020/12/20 03:33:22;;;;;;;23.45;13.93;;;;;;;5.36;74.16;101934.70;1718257;83;21604;-48
2020/12/20 03:36:08;;;;;;;21.05;12.55;;;;;;;5.39;74.10;101929.40;1705091;82;21193;-46
2020/12/20 03:38:36;;;;;;;21.97;13.03;;;;;;;5.42;73.97;101932.45;1673256;83;21169;-47
2020/12/20 03:41:03;;;;;;;18.82;11.53;;;;;;;5.43;73.90;101931.53;1710700;81;21212;-49
2020/12/20 03:43:32;;;;;;;21.97;12.58;;;;;;;5.46;73.85;101933.27;1716450;82;21636;-48
2020/12/20 03:46:00;;;;;;;19.98;11.63;;;;;;;5.49;73.75;101938.50;1720208;81;21173;-48
2020/12/20 03:48:30;;;;;;;21.82;12.25;;;;;;;5.52;73.61;101938.45;1707378;82;21907;-45
2020/12/20 03:50:59;;;;;;;21.35;12.23;;;;;;;5.54;73.51;101940.17;1715317;83;21173;-46
2020/12/20 03:53:27;;;;;;;20.68;12.53;;;;;;;5.54;73.46;101950.77;1712975;82;21575;-49
2020/12/20 03:55:58;;;;;;;23.75;14.05;;;;;;;5.54;73.39;101955.19;1692901;82;21366;-50
2020/12/20 03:58:26;;;;;;;25.52;13.78;;;;;;;5.56;73.31;101958.70;1709430;81;21179;-47
2020/12/20 04:00:53;;;;;;;23.20;14.58;;;;;;;5.56;73.27;101965.31;1711623;82;21189;-56
2020/12/20 04:03:23;;;;;;;22.07;12.37;;;;;;;5.56;73.29;101967.95;1722893;82;21149;-44
2020/12/20 04:05:50;;;;;;;20.20;12.80;;;;;;;5.54;73.26;101964.00;1707100;81;21158;-47
2020/12/20 04:08:19;;;;;;;21.02;12.35;;;;;;;5.55;73.30;101959.15;1730244;81;21679;-46
2020/12/20 04:10:48;;;;;;;19.45;11.65;;;;;;;5.58;73.18;101966.17;1730131;81;21619;-45
2020/12/20 04:13:15;;;;;;;19.10;11.95;;;;;;;5.59;73.06;101971.88;1740719;81;21513;-47
2020/12/20 04:15:45;;;;;;;20.75;12.70;;;;;;;5.58;73.09;101974.11;1726367;81;21202;-47
2020/12/20 04:18:12;;;;;;;22.98;13.28;;;;;;;5.59;73.02;101977.17;1744612;81;21559;-46
2020/12/20 04:20:41;;;;;;;20.70;13.15;;;;;;;5.59;73.00;101977.17;1749398;81;21604;-45
2020/12/20 04:23:09;;;;;;;19.67;12.35;;;;;;;5.59;73.00;101983.78;1732550;81;21133;-44
2020/12/20 04:25:45;;;;;;;26.25;17.70;;;;;;;5.62;73.01;101982.44;1744209;79;28137;-44
2020/12/20 04:28:14;;;;;;;23.07;14.25;;;;;;;5.62;73.01;101991.25;1729128;80;21109;-47
2020/12/20 04:30:42;;;;;;;22.30;12.33;;;;;;;5.74;72.81;101990.18;1705400;82;21157;-51
2020/12/20 04:33:11;;;;;;;17.60;11.63;;;;;;;5.75;72.70;101989.30;1728215;80;21283;-50
2020/12/20 04:35:39;;;;;;;18.98;11.10;;;;;;;5.74;72.64;101987.98;1734630;80;21114;-50
2020/12/20 04:38:08;;;;;;;21.17;13.45;;;;;;;5.73;72.61;101992.87;1705618;82;21157;-50
2020/12/20 04:40:37;;;;;;;26.97;15.25;;;;;;;5.74;72.58;101995.93;1728122;82;21115;-51
2020/12/20 04:43:11;;;;;;;33.75;18.02;;;;;;;5.73;72.58;101993.73;1730879;82;21158;-48
2020/12/20 04:45:43;;;;;;;31.48;17.25;;;;;;;5.72;72.61;101998.62;1729754;80;21125;-50
2020/12/20 04:48:11;;;;;;;39.48;19.02;;;;;;;5.73;72.66;102007.43;1736598;80;21573;-45
2020/12/20 04:50:48;;;;;;;46.48;27.65;;;;;;;5.79;72.62;102008.19;1780970;77;28787;-52
2020/12/20 04:53:16;;;;;;;39.58;20.65;;;;;;;5.79;72.66;102013.48;1771303;78;21152;-50
2020/12/20 04:55:45;;;;;;;39.00;20.35;;;;;;;5.90;72.49;102013.81;1766231;78;21137;-46
2020/12/20 04:58:15;;;;;;;40.58;19.40;;;;;;;5.87;72.43;102008.08;1747558;80;21638;-50
2020/12/20 05:00:43;;;;;;;38.30;18.57;;;;;;;5.86;72.43;102007.67;1774385;78;21106;-46
2020/12/20 05:03:11;;;;;;;37.85;18.98;;;;;;;5.83;72.53;102007.72;1745864;80;21160;-45
2020/12/20 05:05:41;;;;;;;35.33;16.85;;;;;;;5.81;72.54;102017.45;1772757;79;21140;-46
2020/12/20 05:08:08;;;;;;;30.43;16.15;;;;;;;5.78;72.60;102013.53;1772374;78;21160;-46
2020/12/20 05:10:40;;;;;;;31.93;15.48;;;;;;;5.77;72.59;102012.66;1764246;78;21150;-46
2020/12/20 05:13:09;;;;;;;28.80;14.95;;;;;;;5.76;72.65;102016.64;1797405;78;21160;-47
2020/12/20 05:15:37;;;;;;;30.02;14.90;;;;;;;5.76;72.67;102014.86;1767674;78;21106;-47
2020/12/20 05:18:48;;;;;;;29.32;14.53;;;;;;;5.81;72.69;102017.45;1792538;78;23140;-46
2020/12/20 05:21:27;;;;;;;30.57;16.67;;;;;;;5.76;72.64;102018.84;1766762;80;21195;-48
2020/12/20 05:23:56;;;;;;;27.32;14.98;;;;;;;5.75;72.61;102019.75;1773146;80;21646;-45
2020/12/20 05:26:39;;;;;;;30.32;14.73;;;;;;;5.77;72.65;102017.06;1755953;79;23082;-52
2020/12/20 05:29:11;;;;;;;26.93;13.90;;;;;;;5.71;72.71;102018.02;1734729;82;21186;-45
2020/12/20 05:31:41;;;;;;;20.68;11.73;;;;;;;5.70;72.86;102021.59;1735820;80;21447;-45
2020/12/20 05:34:28;;;;;;;27.45;13.95;;;;;;;5.70;72.84;102019.39;1736140;80;21129;-48
2020/12/20 05:37:02;;;;;;;25.35;12.35;;;;;;;5.70;72.83;102018.06;1740902;80;21126;-46
2020/12/20 05:39:36;;;;;;;21.05;12.05;;;;;;;5.71;72.76;102022.00;1670265;84;21168;-49
2020/12/20 05:42:06;;;;;;;26.17;13.32;;;;;;;5.70;72.89;102019.39;1696595;82;21118;-47
2020/12/20 05:44:35;;;;;;;24.87;12.68;;;;;;;5.70;72.87;102023.36;1700398;82;21517;-51
2020/12/20 05:47:06;;;;;;;22.82;13.03;;;;;;;5.70;72.89;102030.84;1698877;82;21141;-53
2020/12/20 05:49:37;;;;;;;26.55;12.73;;;;;;;5.71;72.86;102032.59;1697948;82;21180;-48
2020/12/20 05:52:09;;;;;;;26.52;12.88;;;;;;;5.73;72.88;102040.06;1697467;82;21165;-43
2020/12/20 05:54:41;;;;;;;20.85;11.57;;;;;;;5.75;72.87;102044.03;1696302;82;21346;-50
2020/12/20 05:57:12;;;;;;;23.02;12.37;;;;;;;5.76;72.81;102041.34;1697575;82;21165;-47
2020/12/20 05:59:41;;;;;;;22.42;12.55;;;;;;;5.77;72.77;102037.81;1695834;82;21133;-52
2020/12/20 06:02:09;;;;;;;23.45;12.28;;;;;;;5.76;72.73;102043.98;1693354;82;21168;-47
2020/12/20 06:04:37;;;;;;;25.20;12.98;;;;;;;5.74;72.75;102052.84;1694542;82;21169;-45
2020/12/20 06:07:09;;;;;;;25.25;14.07;;;;;;;5.73;72.78;102053.75;1694789;82;22257;-47
2020/12/20 06:09:54;;;;;;;30.48;14.03;;;;;;;5.72;72.80;102057.28;1691424;82;21211;-46
2020/12/20 06:12:24;;;;;;;28.75;13.88;;;;;;;5.73;72.81;102057.73;1664807;82;21164;-46
2020/12/20 06:14:53;;;;;;;25.17;12.93;;;;;;;5.71;72.86;102064.80;1696873;82;21185;-49
2020/12/20 06:17:25;;;;;;;24.23;11.43;;;;;;;5.70;72.88;102059.97;1704403;82;21161;-44
2020/12/20 06:20:06;;;;;;;22.30;12.60;;;;;;;5.73;72.82;102066.53;1699890;82;21141;-46
2020/12/20 06:22:36;;;;;;;21.35;10.82;;;;;;;5.74;72.80;102062.11;1703602;82;21137;-46
2020/12/20 06:25:08;;;;;;;23.32;12.37;;;;;;;5.72;72.86;102064.80;1694872;82;21161;-46
2020/12/20 06:27:35;;;;;;;23.77;11.33;;;;;;;5.73;72.88;102071.83;1688328;84;21169;-48
2020/12/20 06:30:07;;;;;;;24.57;12.53;;;;;;;5.74;72.94;102077.99;1684264;83;21582;-45
2020/12/20 06:32:46;;;;;;;31.20;13.28;;;;;;;5.75;72.81;102075.34;1682379;83;21625;-47
2020/12/20 06:35:26;;;;;;;20.35;12.37;;;;;;;5.74;72.79;102076.67;1656158;83;21494;-52
2020/12/20 06:37:54;;;;;;;22.62;11.15;;;;;;;5.74;72.82;102083.28;1686816;83;21145;-49
2020/12/20 06:40:33;;;;;;;17.07;9.33;;;;;;;5.73;72.88;102073.16;1682872;83;21166;-50
2020/12/20 06:43:01;;;;;;;18.65;9.98;;;;;;;5.74;72.92;102081.51;1683470;83;21143;-55
2020/12/20 06:45:30;;;;;;;16.85;10.18;;;;;;;5.76;72.79;102079.72;1686956;84;21181;-51
2020/12/20 06:48:01;;;;;;;16.75;9.20;;;;;;;5.77;72.79;102078.84;1688304;83;21182;-48
2020/12/20 06:50:47;;;;;;;;;;;;;;;5.77;72.84;102079.27;1686454;84;21165;-47
2020/12/20 06:53:17;;;;;;;13.50;8.28;;;;;;;5.79;72.76;102084.97;1687250;83;20299;-50
2020/12/20 06:55:45;;;;;;;19.12;9.58;;;;;;;5.80;72.68;102082.77;1685598;83;21203;-48
2020/12/20 06:58:17;;;;;;;16.65;9.58;;;;;;;5.78;72.67;102081.91;1730444;81;21189;-48
2020/12/20 07:00:53;;;;;;;17.73;9.15;;;;;;;5.78;72.68;102088.98;1734060;80;22022;-46
2020/12/20 07:03:32;;;;;;;16.05;8.98;;;;;;;5.79;72.63;102089.40;1733470;81;21207;-44
2020/12/20 07:06:13;;;;;;;15.75;8.95;;;;;;;5.79;72.66;102080.13;1734343;80;21982;-48
2020/12/20 07:09:05;;;;;;;17.00;9.73;;;;;;;5.81;72.65;102087.61;1729013;81;21106;-52
2020/12/20 07:11:42;;;;;;;19.30;9.85;;;;;;;5.81;72.65;102084.97;1731467;81;21118;-47
2020/12/20 07:14:18;;;;;;;19.23;10.32;;;;;;;5.78;72.68;102085.88;1731153;80;21137;-47
2020/12/20 07:16:46;;;;;;;17.55;9.50;;;;;;;5.78;72.69;102083.23;1737001;80;21264;-48
2020/12/20 07:19:21;;;;;;;20.37;11.25;;;;;;;5.79;72.74;102086.75;1737594;80;21165;-47
2020/12/20 07:22:01;;;;;;;17.73;9.55;;;;;;;5.84;72.75;102087.11;1761949;79;23098;-45
2020/12/20 07:24:34;;;;;;;15.75;9.93;;;;;;;5.82;72.83;102092.90;1735941;80;21672;-50
2020/12/20 07:27:04;;;;;;;16.85;9.60;;;;;;;5.79;72.79;102092.91;1743579;80;21153;-47
2020/12/20 07:29:34;;;;;;;16.73;9.93;;;;;;;5.72;72.80;102098.31;1751594;80;21165;-48
2020/12/20 07:32:04;;;;;;;16.55;9.38;;;;;;;5.68;72.90;102098.81;1754107;80;21149;-49
2020/12/20 07:34:32;;;;;;;16.83;9.17;;;;;;;5.68;72.95;102098.81;1744701;80;21165;-47
2020/12/20 07:37:00;;;;;;;15.98;10.03;;;;;;;5.69;72.98;102102.33;1749276;80;21165;-49
2020/12/20 07:39:27;;;;;;;16.10;9.95;;;;;;;5.70;72.99;102101.00;1740574;80;21137;-48
2020/12/20 07:41:59;;;;;;;18.90;11.05;;;;;;;5.70;73.05;102097.03;1683404;83;21149;-47
2020/12/20 07:44:33;;;;;;;16.27;10.68;;;;;;;5.72;73.04;102094.34;1700954;82;21193;-45
2020/12/20 07:47:10;;;;;;;15.63;8.63;;;;;;;5.73;73.00;102098.30;1702047;82;21785;-46
2020/12/20 07:49:38;;;;;;;16.82;9.80;;;;;;;5.74;72.99;102100.05;1703377;82;21161;-47
2020/12/20 07:52:09;;;;;;;18.60;10.80;;;;;;;5.76;72.96;102102.23;1704829;82;21557;-48
2020/12/20 07:54:37;;;;;;;;;;;;;;;5.77;72.90;102100.03;1697141;82;21601;-47
2020/12/20 07:57:05;;;;;;;17.73;9.33;;;;;;;5.78;73.01;102107.06;1747944;80;20167;-47
2020/12/20 07:59:35;;;;;;;15.55;9.23;;;;;;;5.77;73.02;102105.74;1683737;84;21158;-47
2020/12/20 08:02:02;;;;;;;15.98;9.55;;;;;;;5.75;72.88;102102.27;1699763;82;21156;-51
2020/12/20 08:04:29;;;;;;;15.53;9.15;;;;;;;5.72;72.76;102107.58;1699418;82;21162;-47
2020/12/20 08:06:57;;;;;;;14.33;8.58;;;;;;;5.66;72.78;102115.61;1698885;82;21167;-46
2020/12/20 08:09:26;;;;;;;12.68;7.92;;;;;;;5.58;72.84;102120.54;1689483;82;21217;-48
2020/12/20 08:11:55;;;;;;;13.48;8.10;;;;;;;5.54;73.05;102121.91;1678464;83;21145;-49
2020/12/20 08:14:23;;;;;;;14.83;8.83;;;;;;;5.55;73.10;102122.36;1681698;83;21164;-48
2020/12/20 08:16:52;;;;;;;17.92;10.00;;;;;;;5.59;73.05;102125.37;1722696;82;21154;-48
2020/12/20 08:22:22;;;;;;;13.48;9.45;;;;;;;5.53;72.97;102125.02;1796859;78;23090;-49
2020/12/20 08:24:50;;;;;;;16.42;10.48;;;;;;;5.46;73.14;102129.07;1793663;77;21164;-47
2020/12/20 08:27:31;;;;;;;16.10;9.85;;;;;;;5.46;73.21;102133.91;1802120;77;21125;-48
2020/12/20 08:30:00;;;;;;;18.32;10.63;;;;;;;5.46;73.19;102125.10;1797513;77;21143;-47
2020/12/20 08:32:42;;;;;;;16.55;10.60;;;;;;;5.46;73.22;102125.97;1798971;77;21120;-46
2020/12/20 08:35:18;;;;;;;13.88;8.68;;;;;;;5.47;73.20;102125.52;1799753;77;21124;-51
2020/12/20 08:37:58;;;;;;;16.27;9.60;;;;;;;5.48;73.22;102118.90;1794888;77;21160;-50
2020/12/20 08:40:31;;;;;;;15.98;9.33;;;;;;;5.54;73.23;102124.56;1793898;77;21086;-47
2020/12/20 08:42:59;;;;;;;14.68;9.90;;;;;;;5.57;73.13;102119.26;1794670;77;21637;-50
2020/12/20 08:45:28;;;;;;;17.25;10.03;;;;;;;5.57;73.18;102127.20;1789777;77;21145;-46
2020/12/20 08:48:01;;;;;;;13.85;10.32;;;;;;;5.56;73.04;102124.97;1797948;77;21149;-48
2020/12/20 08:53:25;;;;;;;21.25;15.08;;;;;;;5.55;72.96;102113.97;1873045;74;27997;-50
2020/12/20 08:55:53;;;;;;;18.90;10.58;;;;;;;5.56;72.99;102115.70;1804514;78;21132;-51
2020/12/20 08:58:22;;;;;;;15.90;10.50;;;;;;;5.70;72.73;102109.39;1805878;77;21121;-49
2020/12/20 09:00:55;;;;;;;18.20;10.35;;;;;;;5.75;72.50;102111.53;1818962;77;22029;-50
2020/12/20 09:03:24;;;;;;;17.75;10.28;;;;;;;5.76;72.29;102110.63;1793210;78;21113;-50
2020/12/20 09:05:51;;;;;;;18.87;11.53;;;;;;;5.75;72.33;102113.73;1783040;78;21687;-48
2020/12/20 09:08:21;;;;;;;20.30;10.60;;;;;;;5.75;72.37;102109.75;1787253;78;21142;-47
2020/12/20 09:10:48;;;;;;;17.05;11.85;;;;;;;5.75;72.37;102116.38;1762422;79;21518;-45
2020/12/20 09:15:56;;;;;;;25.35;15.93;;;;;;;5.73;72.10;102116.83;1783680;78;28653;-51
2020/12/20 09:18:27;;;;;;;18.48;11.45;;;;;;;5.66;72.11;102118.25;1763115;79;21298;-50
2020/12/20 09:20:54;;;;;;;16.87;10.80;;;;;;;5.68;71.99;102118.66;1769445;79;21248;-46
2020/12/20 09:23:24;;;;;;;16.35;10.65;;;;;;;5.65;72.03;102117.39;1762281;79;21468;-48
2020/12/20 09:26:02;;;;;;;13.85;9.45;;;;;;;5.58;71.58;102127.16;1775885;79;21166;-51
2020/12/20 09:28:32;;;;;;;15.93;11.35;;;;;;;5.38;71.78;102127.38;1770616;79;21602;-50
2020/12/20 09:31:01;;;;;;;18.48;10.20;;;;;;;5.21;72.32;102124.03;1743256;80;21657;-52
2020/12/20 09:33:33;;;;;;;16.37;9.90;;;;;;;5.15;72.63;102121.02;1725437;81;21160;-49
2020/12/20 09:39:02;;;;;;;17.17;9.38;;;;;;;5.28;72.81;102124.41;1786604;78;23196;-46
2020/12/20 09:41:33;;;;;;;13.38;8.45;;;;;;;5.27;72.80;102127.09;1769515;79;21157;-48
2020/12/20 09:44:03;;;;;;;15.03;7.83;;;;;;;5.23;72.85;102127.55;1756834;80;21807;-44
2020/12/20 09:46:52;;;;;;;15.00;8.63;;;;;;;5.19;72.88;102121.42;1733635;81;21313;-44
2020/12/20 09:49:52;;;;;;;12.18;8.43;;;;;;;5.16;72.88;102129.81;1707707;82;21334;-46
2020/12/20 09:52:20;;;;;;;16.70;8.83;;;;;;;5.11;73.00;102130.31;1694283;82;21543;-43
2020/12/20 09:54:49;;;;;;;13.93;7.90;;;;;;;5.06;72.95;102125.06;1659948;83;21269;-44
2020/12/20 09:57:16;;;;;;;13.65;8.83;;;;;;;4.98;72.98;102127.78;1680112;82;21177;-44
2020/12/20 09:59:44;;;;;;;14.87;8.28;;;;;;;4.89;73.05;102122.59;1687680;83;21146;-45
2020/12/20 10:02:12;;;;;;;11.25;7.40;;;;;;;4.82;73.26;102122.67;1691398;83;21181;-46
2020/12/20 10:04:39;;;;;;;10.53;7.10;;;;;;;4.78;73.36;102132.38;1696469;82;21180;-46
2020/12/20 10:07:07;;;;;;;11.28;7.60;;;;;;;4.74;73.45;102123.60;1697791;82;21202;-45
2020/12/20 10:09:34;;;;;;;10.13;7.58;;;;;;;4.74;73.64;102128.02;1687492;82;21649;-44
2020/12/20 10:12:02;;;;;;;12.95;8.48;;;;;;;4.71;73.67;102123.63;1669253;83;21344;-46
2020/12/20 10:14:30;;;;;;;15.40;8.63;;;;;;;4.74;73.71;102125.37;1668373;83;21633;-46
2020/12/20 10:16:57;;;;;;;13.45;8.60;;;;;;;4.73;73.84;102124.92;1674283;83;21729;-47
2020/12/20 10:19:26;;;;;;;12.90;8.35;;;;;;;4.71;73.85;102120.99;1671204;83;21686;-47
2020/12/20 10:21:53;;;;;;;11.03;7.92;;;;;;;4.65;74.00;102120.16;1669347;83;21582;-46
2020/12/20 10:24:21;;;;;;;13.38;8.28;;;;;;;4.62;74.15;102116.22;1673693;83;21162;-46
2020/12/20 10:26:48;;;;;;;12.03;8.10;;;;;;;4.61;74.25;102116.67;1673638;83;21171;-47
2020/12/20 10:29:17;;;;;;;9.63;7.50;;;;;;;4.68;74.30;102119.67;1667750;83;21202;-48
2020/12/20 10:31:46;;;;;;;15.68;10.68;;;;;;;4.76;74.25;102118.28;1660458;83;22090;-47
2020/12/20 10:34:13;;;;;;;13.70;9.63;;;;;;;4.82;74.26;102119.57;1660976;83;21571;-46
2020/12/20 10:36:41;;;;;;;12.82;9.25;;;;;;;4.87;74.18;102108.51;1625315;86;21321;-44
2020/12/20 10:39:08;;;;;;;13.13;9.35;;;;;;;4.88;74.01;102104.96;1666733;83;21153;-45
2020/12/20 10:41:39;;;;;;;12.43;9.13;;;;;;;4.87;74.01;102108.51;1658948;84;21221;-46
2020/12/20 10:44:07;;;;;;;12.35;8.78;;;;;;;4.91;73.96;102105.38;1658474;84;21346;-48
2020/12/20 10:46:35;;;;;;;13.90;9.70;;;;;;;4.96;73.84;102102.24;1644247;84;21197;-44
2020/12/20 10:49:04;;;;;;;12.25;8.45;;;;;;;5.00;73.66;102106.62;1649357;85;21254;-47
2020/12/20 10:51:32;;;;;;;16.33;10.80;;;;;;;5.02;73.55;102105.30;1647922;84;21177;-46
2020/12/20 10:54:00;;;;;;;16.23;10.90;;;;;;;5.01;73.42;102101.75;1652095;84;21173;-45
2020/12/20 10:56:27;;;;;;;13.45;10.15;;;;;;;5.05;73.34;102102.62;1651652;84;21182;-46
2020/12/20 10:58:55;;;;;;;14.60;10.43;;;;;;;5.08;73.31;102110.52;1671983;83;21189;-46
2020/12/20 11:01:23;;;;;;;13.72;9.38;;;;;;;5.10;73.04;102104.77;1662300;83;21178;-47
2020/12/20 11:03:50;;;;;;;15.58;9.43;;;;;;;5.12;72.89;102110.47;1619205;86;21266;-45
2020/12/20 11:06:21;;;;;;;13.72;8.73;;;;;;;5.15;72.86;102109.11;1661212;83;21621;-46
2020/12/20 11:08:48;;;;;;;12.37;9.35;;;;;;;5.18;72.72;102116.14;1657021;83;21922;-47
2020/12/20 11:11:17;;;;;;;16.52;10.08;;;;;;;5.21;72.66;102115.64;1670184;83;21215;-46
2020/12/20 11:13:45;;;;;;;19.77;11.78;;;;;;;5.24;72.53;102116.09;1676213;83;21165;-45
2020/12/20 11:16:14;;;;;;;15.50;9.95;;;;;;;5.24;72.42;102115.19;1667621;84;21719;-45
2020/12/20 11:18:43;;;;;;;21.82;13.13;;;;;;;5.21;72.37;102110.36;1667877;83;21210;-45
2020/12/20 11:21:13;;;;;;;23.27;13.75;;;;;;;5.23;72.31;102114.77;1681415;83;21185;-46
2020/12/20 11:23:43;;;;;;;18.12;12.23;;;;;;;5.20;72.30;102109.94;1682357;83;21194;-46
2020/12/20 11:26:18;;;;;;;20.45;12.58;;;;;;;5.17;72.35;102115.72;1673541;83;21334;-47
2020/12/20 11:28:48;;;;;;;21.65;13.43;;;;;;;5.13;72.28;102116.18;1669059;83;21280;-44
2020/12/20 11:31:21;;;;;;;20.15;12.18;;;;;;;5.06;72.34;102119.77;1668785;83;21750;-43
2020/12/20 11:33:50;;;;;;;20.48;12.30;;;;;;;4.98;72.51;102118.98;1661908;84;21446;-46
2020/12/20 11:36:22;;;;;;;19.92;12.68;;;;;;;4.88;72.81;102116.86;1660521;83;21170;-47
2020/12/20 11:38:50;;;;;;;18.32;12.28;;;;;;;4.78;73.01;102121.34;1677254;83;21193;-48
2020/12/20 11:41:24;;;;;;;19.35;12.55;;;;;;;4.66;73.35;102120.57;1661635;83;21593;-47
2020/12/20 11:43:53;;;;;;;19.48;14.23;;;;;;;4.56;73.69;102123.73;1674366;83;21580;-47
2020/12/20 11:46:21;;;;;;;21.75;13.70;;;;;;;4.50;73.93;102127.75;1670119;84;21202;-47
2020/12/20 11:48:48;;;;;;;18.15;13.03;;;;;;;4.47;74.19;102128.65;1657461;83;21205;-47